createdAt,value
2023-04-16T00:02:03.422Z,2.30
2023-04-16T00:04:31.167Z,2.88
2023-04-16T00:06:58.351Z,2.03
2023-04-16T00:09:25.604Z,2.40
2023-04-16T00:11:52.880Z,1.95
2023-04-16T00:14:20.017Z,1.98
2023-04-16T00:16:47.139Z,2.00
2023-04-16T00:19:14.274Z,1.65
2023-04-16T00:21:41.403Z,1.80
2023-04-16T00:24:08.559Z,2.00
2023-04-16T00:26:35.686Z,1.65
2023-04-16T00:29:02.879Z,1.83
2023-04-16T00:31:30.755Z,2.08
2023-04-16T00:33:58.453Z,1.77
2023-04-16T00:36:26.960Z,1.90
2023-04-16T00:38:54.380Z,2.25
2023-04-16T00:41:22.929Z,2.30
2023-04-16T00:43:50.537Z,2.08
2023-04-16T00:46:19.587Z,2.53
2023-04-16T00:48:47.075Z,2.22
2023-04-16T00:51:14.275Z,2.60
2023-04-16T00:53:41.600Z,2.85
2023-04-16T00:56:08.860Z,3.10
2023-04-16T00:58:36.378Z,2.60
2023-04-16T01:01:03.624Z,2.83
2023-04-16T01:03:36.017Z,2.55
2023-04-16T01:06:03.410Z,2.63
2023-04-16T01:08:30.539Z,2.70
2023-04-16T01:10:57.818Z,2.50
2023-04-16T01:13:24.939Z,2.67
2023-04-16T01:15:52.387Z,2.45
2023-04-16T01:18:20.451Z,2.40
2023-04-16T01:20:48.235Z,2.00
2023-04-16T01:23:15.421Z,2.88
2023-04-16T01:25:42.518Z,3.22
2023-04-16T01:28:09.570Z,3.28
2023-04-16T01:30:36.622Z,2.90
2023-04-16T01:33:32.594Z,3.15
2023-04-16T01:35:59.785Z,3.08
2023-04-16T01:38:26.929Z,2.95
2023-04-16T01:41:00.206Z,2.65
2023-04-16T01:43:27.372Z,2.97
2023-04-16T01:45:59.413Z,3.20
2023-04-16T01:48:26.553Z,3.22
2023-04-16T01:50:53.620Z,3.70
2023-04-16T01:53:20.670Z,3.67
2023-04-16T01:55:47.798Z,3.80
2023-04-16T01:58:14.935Z,3.63
2023-04-16T02:00:42.200Z,4.28
2023-04-16T02:03:10.624Z,4.47
2023-04-16T02:05:37.818Z,5.05
2023-04-16T02:08:05.106Z,4.45
2023-04-16T02:10:32.246Z,4.90
2023-04-16T02:12:59.399Z,5.35
2023-04-16T02:15:26.525Z,5.05
2023-04-16T02:17:56.945Z,5.28
2023-04-16T02:20:25.580Z,4.63
2023-04-16T02:22:56.325Z,5.13
2023-04-16T02:25:25.008Z,5.32
2023-04-16T02:27:55.338Z,5.47
2023-04-16T02:30:32.083Z,5.07
2023-04-16T02:32:59.341Z,4.40
2023-04-16T02:35:27.661Z,4.50
2023-04-16T02:37:54.803Z,5.25
2023-04-16T02:40:22.296Z,5.43
2023-04-16T02:42:49.374Z,5.07
2023-04-16T02:45:16.615Z,5.35
2023-04-16T02:47:43.839Z,5.63
2023-04-16T02:50:11.218Z,5.53
2023-04-16T02:52:38.348Z,5.72
2023-04-16T02:55:06.030Z,5.90
2023-04-16T02:57:33.434Z,5.93
2023-04-16T03:00:00.577Z,5.78
2023-04-16T03:02:27.942Z,5.78
2023-04-16T03:04:55.563Z,6.03
2023-04-16T03:07:22.855Z,6.38
2023-04-16T03:09:50.234Z,6.20
2023-04-16T03:12:17.318Z,6.38
2023-04-16T03:14:45.344Z,6.55
2023-04-16T03:17:12.799Z,5.82
2023-04-16T03:19:39.903Z,5.30
2023-04-16T03:22:06.972Z,5.95
2023-04-16T03:24:34.282Z,6.03
2023-04-16T03:27:02.413Z,5.78
2023-04-16T03:29:29.739Z,5.95
2023-04-16T03:31:58.382Z,5.78
2023-04-16T03:34:26.623Z,5.78
2023-04-16T03:36:53.831Z,5.05
2023-04-16T03:39:21.417Z,5.45
2023-04-16T03:41:48.525Z,6.00
2023-04-16T03:44:15.613Z,6.07
2023-04-16T03:46:42.834Z,6.20
2023-04-16T03:49:10.303Z,5.97
2023-04-16T03:51:37.514Z,6.28
2023-04-16T03:54:05.158Z,6.15
2023-04-16T03:56:32.982Z,5.75
2023-04-16T03:59:00.231Z,6.47
2023-04-16T04:01:27.744Z,6.55
2023-04-16T04:03:54.961Z,6.68
2023-04-16T04:06:22.179Z,6.50
2023-04-16T04:08:49.303Z,6.78
2023-04-16T04:11:16.841Z,7.68
2023-04-16T04:13:44.690Z,7.07
2023-04-16T04:16:12.104Z,6.30
2023-04-16T04:18:39.260Z,6.72
2023-04-16T04:21:10.376Z,6.45
2023-04-16T04:23:37.796Z,6.38
2023-04-16T04:26:07.416Z,6.90
2023-04-16T04:28:35.520Z,6.53
2023-04-16T04:31:02.721Z,6.50
2023-04-16T04:33:31.264Z,6.88
2023-04-16T04:35:58.778Z,6.85
2023-04-16T04:38:26.761Z,7.20
2023-04-16T04:40:54.633Z,6.03
2023-04-16T04:43:24.018Z,6.43
2023-04-16T04:45:51.420Z,6.68
2023-04-16T04:48:18.951Z,6.07
2023-04-16T04:50:46.731Z,6.63
2023-04-16T04:53:14.889Z,6.50
2023-04-16T04:55:42.293Z,6.57
2023-04-16T04:58:09.755Z,6.40
2023-04-16T05:00:37.521Z,5.88
2023-04-16T05:03:06.131Z,6.63
2023-04-16T05:05:33.447Z,6.43
2023-04-16T05:08:00.655Z,6.43
2023-04-16T05:10:28.108Z,6.30
2023-04-16T05:12:55.226Z,6.72
2023-04-16T05:15:22.385Z,6.30
2023-04-16T05:17:49.629Z,6.60
2023-04-16T05:20:16.880Z,7.18
2023-04-16T05:22:43.989Z,6.50
2023-04-16T05:25:11.111Z,7.22
2023-04-16T05:27:38.414Z,7.65
2023-04-16T05:30:06.086Z,6.28
2023-04-16T05:32:33.499Z,7.60
2023-04-16T05:35:00.644Z,7.07
2023-04-16T05:37:27.782Z,6.65
2023-04-16T05:39:54.871Z,7.35
2023-04-16T05:42:22.002Z,7.40
2023-04-16T05:44:49.153Z,7.57
2023-04-16T05:47:17.341Z,6.22
2023-04-16T05:49:44.524Z,7.75
2023-04-16T05:52:11.650Z,6.53
2023-04-16T05:54:38.759Z,7.57
2023-04-16T05:57:05.884Z,6.18
2023-04-16T05:59:33.136Z,5.85
2023-04-16T06:02:00.251Z,6.85
2023-04-16T06:04:27.358Z,7.25
2023-04-16T06:06:54.449Z,7.35
2023-04-16T06:09:21.560Z,7.47
2023-04-16T06:11:48.982Z,8.60
2023-04-16T06:14:16.186Z,7.28
2023-04-16T06:16:43.318Z,7.20
2023-04-16T06:19:10.614Z,8.23
2023-04-16T06:21:37.977Z,8.25
2023-04-16T06:24:05.452Z,6.97
2023-04-16T06:26:32.494Z,7.93
2023-04-16T06:28:59.713Z,9.13
2023-04-16T06:31:26.905Z,8.05
2023-04-16T06:33:54.000Z,8.60
2023-04-16T06:36:21.069Z,7.72
2023-04-16T06:38:48.318Z,8.15
2023-04-16T06:41:15.663Z,8.40
2023-04-16T06:43:42.849Z,7.68
2023-04-16T06:46:10.009Z,8.45
2023-04-16T06:48:37.140Z,7.97
2023-04-16T06:51:05.250Z,8.25
2023-04-16T06:53:32.935Z,7.15
2023-04-16T06:56:00.079Z,7.50
2023-04-16T06:58:27.375Z,8.80
2023-04-16T07:00:54.555Z,8.32
2023-04-16T07:03:21.889Z,9.00
2023-04-16T07:05:49.085Z,10.05
2023-04-16T07:08:16.250Z,9.98
2023-04-16T07:10:43.439Z,9.90
2023-04-16T07:13:10.848Z,9.15
2023-04-16T07:15:38.009Z,8.57
2023-04-16T07:18:05.367Z,9.10
2023-04-16T07:20:32.764Z,8.95
2023-04-16T07:22:59.860Z,7.90
2023-04-16T07:25:27.121Z,8.40
2023-04-16T07:27:54.249Z,8.50
2023-04-16T07:30:21.441Z,7.22
2023-04-16T07:32:48.622Z,8.07
2023-04-16T07:35:15.775Z,7.32
2023-04-16T07:37:42.929Z,7.95
2023-04-16T07:40:10.323Z,7.93
2023-04-16T07:42:37.497Z,6.68
2023-04-16T07:45:04.708Z,7.80
2023-04-16T07:47:31.944Z,7.25
2023-04-16T07:49:59.131Z,7.03
2023-04-16T07:52:26.819Z,7.28
2023-04-16T07:54:53.939Z,6.40
2023-04-16T07:57:21.302Z,6.25
2023-04-16T07:59:48.429Z,6.43
2023-04-16T08:02:16.800Z,6.22
2023-04-16T08:04:44.566Z,6.22
2023-04-16T08:07:12.028Z,6.32
2023-04-16T08:09:47.816Z,5.75
2023-04-16T08:12:14.906Z,5.15
2023-04-16T08:14:42.027Z,6.47
2023-04-16T08:17:09.296Z,6.13
2023-04-16T08:19:36.434Z,6.03
2023-04-16T08:22:04.009Z,5.63
2023-04-16T08:24:31.145Z,6.18
2023-04-16T08:27:11.211Z,5.72
2023-04-16T08:29:45.169Z,5.32
2023-04-16T08:32:12.317Z,5.43
2023-04-16T08:34:39.447Z,4.55
2023-04-16T08:37:06.515Z,5.07
2023-04-16T08:39:33.709Z,4.50
2023-04-16T08:42:02.342Z,4.88
2023-04-16T08:44:33.593Z,4.75
2023-04-16T08:47:01.271Z,4.90
2023-04-16T08:49:29.013Z,5.03
2023-04-16T08:51:57.061Z,4.57
2023-04-16T08:54:27.285Z,4.85
2023-04-16T08:56:54.660Z,4.45
2023-04-16T08:59:22.566Z,4.63
2023-04-16T09:01:52.276Z,4.30
2023-04-16T09:04:19.991Z,4.40
2023-04-16T09:06:48.204Z,4.05
2023-04-16T09:09:15.689Z,4.22
2023-04-16T09:11:44.277Z,4.55
2023-04-16T09:14:12.069Z,4.20
2023-04-16T09:16:39.494Z,4.20
2023-04-16T09:19:06.671Z,4.28
2023-04-16T09:21:33.771Z,4.43
2023-04-16T09:24:01.031Z,4.95
2023-04-16T09:26:28.516Z,4.57
2023-04-16T09:28:55.599Z,4.28
2023-04-16T09:31:22.759Z,3.90
2023-04-16T09:34:02.335Z,4.85
2023-04-16T09:36:29.593Z,4.22
2023-04-16T09:38:57.935Z,4.88
2023-04-16T09:41:27.168Z,4.70
2023-04-16T09:43:56.534Z,4.85
2023-04-16T09:46:24.373Z,4.63
2023-04-16T09:48:51.592Z,4.50
2023-04-16T09:51:18.722Z,4.20
2023-04-16T09:53:45.980Z,4.10
2023-04-16T09:56:13.778Z,5.13
2023-04-16T09:58:41.766Z,4.25
2023-04-16T10:01:10.358Z,4.72
2023-04-16T10:03:38.905Z,5.07
2023-04-16T10:06:06.303Z,5.22
2023-04-16T10:08:33.384Z,5.05
2023-04-16T10:11:00.953Z,5.90
2023-04-16T10:13:28.101Z,6.50
2023-04-16T10:15:58.762Z,6.38
2023-04-16T10:18:26.243Z,5.93
2023-04-16T10:20:53.577Z,5.82
2023-04-16T10:23:22.465Z,5.68
2023-04-16T10:25:50.777Z,5.75
2023-04-16T10:28:18.102Z,5.97
2023-04-16T10:30:52.774Z,5.10
2023-04-16T10:33:21.319Z,6.50
2023-04-16T10:35:57.896Z,5.65
2023-04-16T10:38:35.142Z,5.97
2023-04-16T10:41:05.915Z,5.75
2023-04-16T10:43:34.279Z,6.53
2023-04-16T10:46:20.701Z,7.10
2023-04-16T10:48:50.204Z,6.97
2023-04-16T10:51:26.000Z,8.45
2023-04-16T10:53:54.580Z,7.45
2023-04-16T10:56:28.112Z,8.23
2023-04-16T10:58:58.386Z,7.78
2023-04-16T11:01:32.553Z,7.60
2023-04-16T11:04:01.986Z,7.13
2023-04-16T11:06:29.626Z,7.35
2023-04-16T11:08:56.759Z,7.20
2023-04-16T11:11:24.261Z,7.70
2023-04-16T11:13:55.805Z,7.72
2023-04-16T11:16:22.983Z,7.72
2023-04-16T11:18:51.540Z,6.93
2023-04-16T11:21:19.174Z,7.07
2023-04-16T11:23:47.510Z,6.43
2023-04-16T11:26:24.749Z,7.43
2023-04-16T11:28:51.813Z,7.45
2023-04-16T11:31:18.935Z,7.25
2023-04-16T11:33:46.129Z,7.70
2023-04-16T11:36:13.424Z,7.40
2023-04-16T11:38:43.608Z,7.32
2023-04-16T11:41:11.413Z,7.15
2023-04-16T11:43:38.534Z,7.60
2023-04-16T11:46:16.674Z,7.95
2023-04-16T11:48:52.684Z,8.07
2023-04-16T11:51:20.564Z,7.82
2023-04-16T11:53:52.836Z,7.63
2023-04-16T11:56:27.363Z,7.75
2023-04-16T11:59:07.107Z,6.28
2023-04-16T12:01:35.862Z,6.90
2023-04-16T12:04:03.565Z,8.15
2023-04-16T12:06:32.247Z,7.53
2023-04-16T12:08:59.902Z,6.93
2023-04-16T12:11:39.767Z,6.72
2023-04-16T12:14:09.963Z,7.20
2023-04-16T12:16:37.111Z,6.53
2023-04-16T12:19:04.563Z,6.15
2023-04-16T12:21:38.771Z,6.55
2023-04-16T12:24:06.710Z,6.60
2023-04-16T12:26:48.694Z,6.30
2023-04-16T12:29:27.961Z,5.38
2023-04-16T12:31:55.286Z,6.03
2023-04-16T12:34:28.892Z,6.03
2023-04-16T12:37:10.537Z,6.32
2023-04-16T12:39:37.645Z,6.57
2023-04-16T12:42:06.366Z,6.55
2023-04-16T12:44:33.512Z,6.88
2023-04-16T12:47:01.662Z,6.95
2023-04-16T12:49:28.740Z,6.97
2023-04-16T12:51:55.864Z,6.57
2023-04-16T12:54:22.980Z,7.13
2023-04-16T12:56:50.135Z,7.15
2023-04-16T12:59:17.826Z,7.50
2023-04-16T13:01:44.995Z,7.38
2023-04-16T13:04:12.363Z,7.80
2023-04-16T13:06:39.637Z,9.13
2023-04-16T13:09:07.387Z,8.48
2023-04-16T13:11:34.547Z,8.45
2023-04-16T13:14:01.683Z,7.68
2023-04-16T13:16:28.850Z,8.55
2023-04-16T13:18:56.026Z,8.77
2023-04-16T13:21:23.833Z,9.02
2023-04-16T13:23:50.959Z,8.50
2023-04-16T13:26:18.119Z,7.97
2023-04-16T13:28:45.316Z,8.70
2023-04-16T13:31:12.544Z,8.18
2023-04-16T13:33:39.723Z,7.95
2023-04-16T13:36:07.164Z,8.02
2023-04-16T13:38:34.249Z,8.38
2023-04-16T13:41:01.329Z,8.20
2023-04-16T13:43:28.410Z,8.10
2023-04-16T13:45:55.887Z,7.75
2023-04-16T13:48:23.048Z,7.60
2023-04-16T13:50:50.152Z,7.15
2023-04-16T13:53:17.455Z,7.28
2023-04-16T13:55:44.974Z,7.57
2023-04-16T13:58:12.094Z,6.72
2023-04-16T14:00:39.264Z,6.88
2023-04-16T14:03:06.774Z,7.28
2023-04-16T14:05:33.968Z,7.03
2023-04-16T14:08:01.111Z,6.85
2023-04-16T14:10:28.220Z,6.65
2023-04-16T14:12:55.498Z,7.15
2023-04-16T14:15:22.654Z,6.68
2023-04-16T14:17:49.903Z,7.10
2023-04-16T14:20:17.000Z,7.00
2023-04-16T14:22:46.430Z,6.28
2023-04-16T14:25:13.529Z,6.82
2023-04-16T14:27:41.466Z,6.32
2023-04-16T14:30:08.915Z,6.00
2023-04-16T14:32:36.603Z,5.82
2023-04-16T14:35:04.153Z,6.50
2023-04-16T14:37:31.564Z,6.68
2023-04-16T14:39:59.168Z,7.13
2023-04-16T14:42:27.121Z,6.82
2023-04-16T14:44:54.779Z,6.38
2023-04-16T14:47:21.880Z,6.68
2023-04-16T14:49:49.056Z,7.13
2023-04-16T14:52:16.304Z,6.85
2023-04-16T14:54:43.436Z,6.63
2023-04-16T14:57:10.546Z,6.15
2023-04-16T14:59:37.589Z,7.60
2023-04-16T15:02:05.065Z,7.20
2023-04-16T15:04:32.375Z,6.80
2023-04-16T15:07:00.180Z,7.03
2023-04-16T15:09:27.724Z,7.10
2023-04-16T15:11:55.060Z,6.82
2023-04-16T15:14:22.206Z,6.93
2023-04-16T15:16:49.577Z,7.43
2023-04-16T15:19:17.634Z,7.35
2023-04-16T15:21:46.469Z,7.53
2023-04-16T15:24:15.477Z,7.18
2023-04-16T15:26:42.944Z,6.95
2023-04-16T15:29:10.443Z,7.22
2023-04-16T15:31:37.622Z,7.43
2023-04-16T15:34:04.857Z,7.43
2023-04-16T15:36:32.510Z,7.30
2023-04-16T15:38:59.616Z,7.15
2023-04-16T15:41:29.832Z,8.63
2023-04-16T15:43:56.910Z,8.68
2023-04-16T15:46:24.145Z,7.25
2023-04-16T15:48:51.263Z,7.68
2023-04-16T15:51:18.411Z,8.13
2023-04-16T15:53:45.755Z,7.72
2023-04-16T15:56:12.807Z,8.02
2023-04-16T15:58:39.948Z,8.38
2023-04-16T16:01:07.067Z,7.82
2023-04-16T16:03:35.994Z,7.70
2023-04-16T16:06:07.638Z,7.85
2023-04-16T16:08:36.980Z,8.43
2023-04-16T16:11:04.194Z,7.88
2023-04-16T16:13:31.280Z,8.63
2023-04-16T16:15:58.439Z,9.18
2023-04-16T16:18:25.583Z,8.60
2023-04-16T16:20:56.832Z,8.77
2023-04-16T16:23:23.890Z,9.52
2023-04-16T16:25:51.914Z,8.48
2023-04-16T16:28:19.090Z,9.02
2023-04-16T16:30:47.409Z,8.38
2023-04-16T16:33:14.831Z,9.07
2023-04-16T16:35:41.985Z,9.07
2023-04-16T16:38:09.583Z,8.57
2023-04-16T16:40:37.674Z,8.90
2023-04-16T16:43:04.787Z,8.65
2023-04-16T16:45:32.260Z,9.23
2023-04-16T16:47:59.392Z,8.27
2023-04-16T16:50:27.001Z,8.80
2023-04-16T16:52:54.138Z,8.55
2023-04-16T16:55:21.492Z,8.63
2023-04-16T16:57:48.626Z,8.82
2023-04-16T17:00:16.257Z,8.45
2023-04-16T17:02:43.735Z,9.65
2023-04-16T17:05:11.167Z,8.60
2023-04-16T17:07:38.200Z,9.27
2023-04-16T17:10:06.830Z,8.30
2023-04-16T17:12:34.255Z,8.48
2023-04-16T17:15:01.395Z,8.93
2023-04-16T17:17:29.178Z,9.50
2023-04-16T17:19:56.322Z,9.32
2023-04-16T17:22:23.384Z,9.25
2023-04-16T17:24:50.490Z,9.50
2023-04-16T17:27:17.680Z,9.85
2023-04-16T17:29:44.838Z,9.75
2023-04-16T17:32:12.004Z,8.93
2023-04-16T17:34:39.131Z,9.93
2023-04-16T17:37:06.214Z,15.32
2023-04-16T17:39:33.335Z,11.32
2023-04-16T17:42:02.993Z,10.52
2023-04-16T17:44:30.144Z,10.52
2023-04-16T17:46:57.516Z,9.40
2023-04-16T17:49:24.715Z,9.70
2023-04-16T17:51:51.775Z,9.60
2023-04-16T17:54:18.918Z,8.93
2023-04-16T17:56:46.259Z,8.85
2023-04-16T17:59:13.370Z,9.23
2023-04-16T18:01:40.960Z,9.07
2023-04-16T18:04:08.639Z,10.07
2023-04-16T18:06:36.057Z,9.23
2023-04-16T18:09:05.667Z,11.32
2023-04-16T18:11:33.012Z,9.07
2023-04-16T18:14:00.179Z,9.70
2023-04-16T18:16:27.527Z,9.38
2023-04-16T18:18:54.715Z,9.82
2023-04-16T18:21:21.983Z,9.82
2023-04-16T18:23:49.089Z,9.95
2023-04-16T18:26:20.504Z,10.27
2023-04-16T18:31:18.425Z,10.05
2023-04-16T18:33:56.269Z,10.52
2023-04-16T18:36:26.074Z,10.15
2023-04-16T18:39:00.993Z,11.23
2023-04-16T18:41:41.628Z,10.95
2023-04-16T18:44:10.701Z,12.05
2023-04-16T18:46:37.926Z,10.15
2023-04-16T18:49:05.428Z,11.50
2023-04-16T18:51:32.709Z,11.75
2023-04-16T18:53:59.803Z,10.98
2023-04-16T18:56:26.861Z,11.10
2023-04-16T18:58:54.004Z,11.50
2023-04-16T19:01:21.242Z,12.02
2023-04-16T19:03:48.446Z,11.07
2023-04-16T19:06:15.673Z,11.18
2023-04-16T19:08:42.862Z,11.40
2023-04-16T19:11:09.924Z,10.00
2023-04-16T19:13:38.611Z,11.32
2023-04-16T19:16:11.080Z,12.38
2023-04-16T19:18:38.939Z,11.68
2023-04-16T19:21:07.064Z,11.45
2023-04-16T19:23:34.250Z,11.80
2023-04-16T19:26:01.872Z,11.73
2023-04-16T19:28:29.314Z,11.18
2023-04-16T19:30:56.489Z,11.48
2023-04-16T19:33:23.709Z,10.73
2023-04-16T19:35:50.865Z,11.15
2023-04-16T19:38:17.944Z,10.85
2023-04-16T19:40:46.412Z,12.40
2023-04-16T19:43:13.605Z,12.90
2023-04-16T19:45:47.471Z,11.57
2023-04-16T19:48:15.089Z,12.15
2023-04-16T19:50:42.920Z,11.98
2023-04-16T19:53:10.293Z,12.70
2023-04-16T19:55:37.549Z,11.43
2023-04-16T19:58:07.487Z,12.05
2023-04-16T20:00:35.029Z,11.07
2023-04-16T20:03:02.259Z,12.45
2023-04-16T20:05:29.738Z,12.30
2023-04-16T20:07:57.035Z,11.57
2023-04-16T20:10:24.494Z,12.70
2023-04-16T20:12:51.749Z,12.85
2023-04-16T20:15:19.164Z,13.48
2023-04-16T20:17:46.387Z,12.15
2023-04-16T20:20:15.695Z,12.45
2023-04-16T20:22:43.347Z,12.52
2023-04-16T20:25:11.270Z,12.93
2023-04-16T20:27:38.431Z,13.70
2023-04-16T20:30:06.204Z,13.45
2023-04-16T20:32:33.608Z,12.30
2023-04-16T20:35:01.903Z,13.75
2023-04-16T20:37:29.113Z,13.32
2023-04-16T20:39:56.429Z,14.27
2023-04-16T20:42:26.210Z,14.00
2023-04-16T20:44:56.498Z,12.75
2023-04-16T20:47:23.965Z,13.70
2023-04-16T20:49:52.558Z,12.77
2023-04-16T20:52:19.769Z,13.75
2023-04-16T20:54:47.236Z,13.70
2023-04-16T20:57:14.394Z,13.23
2023-04-16T20:59:41.527Z,13.50
2023-04-16T21:02:08.782Z,13.57
2023-04-16T21:04:36.157Z,13.93
2023-04-16T21:07:04.486Z,13.57
2023-04-16T21:09:31.759Z,13.20
2023-04-16T21:11:58.930Z,13.63
2023-04-16T21:14:26.087Z,11.93
2023-04-16T21:16:53.176Z,12.27
2023-04-16T21:19:20.512Z,13.63
2023-04-16T21:21:47.583Z,13.50
2023-04-16T21:24:14.773Z,12.98
2023-04-16T21:26:41.857Z,13.20
2023-04-16T21:29:08.925Z,13.63
2023-04-16T21:31:36.157Z,13.95
2023-04-16T21:34:03.295Z,13.20
2023-04-16T21:36:31.991Z,13.52
2023-04-16T21:38:59.042Z,12.88
2023-04-16T21:41:26.463Z,12.98
2023-04-16T21:43:53.621Z,12.25
2023-04-16T21:46:21.204Z,12.55
2023-04-16T21:48:49.622Z,11.57
2023-04-16T21:51:17.959Z,12.77
2023-04-16T21:53:45.202Z,11.90
2023-04-16T21:56:12.298Z,13.02
2023-04-16T21:58:39.387Z,13.25
2023-04-16T22:01:08.293Z,13.00
2023-04-16T22:03:39.982Z,12.30
2023-04-16T22:06:07.719Z,13.90
2023-04-16T22:08:34.948Z,14.05
2023-04-16T22:11:02.820Z,12.10
2023-04-16T22:13:32.420Z,13.13
2023-04-16T22:16:03.400Z,15.50
2023-04-16T22:18:33.703Z,13.75
2023-04-16T22:21:00.967Z,14.45
2023-04-16T22:23:28.180Z,15.07
2023-04-16T22:25:56.387Z,14.40
2023-04-16T22:28:23.919Z,13.75
2023-04-16T22:30:51.240Z,14.48
2023-04-16T22:33:18.645Z,14.63
2023-04-16T22:35:46.195Z,15.00
2023-04-16T22:38:13.597Z,15.68
2023-04-16T22:40:41.007Z,13.25
2023-04-16T22:43:08.141Z,15.18
2023-04-16T22:45:35.588Z,14.65
2023-04-16T22:48:02.944Z,13.98
2023-04-16T22:50:31.278Z,15.13
2023-04-16T22:52:58.528Z,14.60
2023-04-16T22:55:25.844Z,15.25
2023-04-16T22:57:52.950Z,14.20
2023-04-16T23:00:21.003Z,13.15
2023-04-16T23:02:48.271Z,14.15
2023-04-16T23:05:15.795Z,14.65
2023-04-16T23:07:42.864Z,13.77
2023-04-16T23:10:10.252Z,14.30
2023-04-16T23:12:37.464Z,13.75
2023-04-16T23:15:06.322Z,14.10
2023-04-16T23:17:33.780Z,14.43
2023-04-16T23:20:00.992Z,13.85
2023-04-16T23:22:28.209Z,13.90
2023-04-16T23:24:55.334Z,14.82
2023-04-16T23:27:22.442Z,13.45
2023-04-16T23:29:49.548Z,13.68
2023-04-16T23:32:16.678Z,13.65
2023-04-16T23:34:43.788Z,13.95
2023-04-16T23:37:10.894Z,13.93
2023-04-16T23:39:38.133Z,14.20
2023-04-16T23:42:05.247Z,13.00
2023-04-16T23:44:32.335Z,13.88
2023-04-16T23:46:59.603Z,12.15
2023-04-16T23:49:26.830Z,13.85
2023-04-16T23:51:54.008Z,14.43
2023-04-16T23:54:21.380Z,14.32
2023-04-16T23:56:48.582Z,13.27
2023-04-16T23:59:16.649Z,14.15
